sensor_id;sensor_type;location;lat;lon;timestamp;P1;durP1;ratioP1;P2;durP2;ratioP2
9559;SDS011;4818;50.860;4.648;2023-03-23T00:01:14;2.58;;;1.13;;
9559;SDS011;4818;50.860;4.648;2023-03-23T00:03:48;3.60;;;1.95;;
9559;SDS011;4818;50.860;4.648;2023-03-23T00:06:14;4.57;;;1.60;;
9559;SDS011;4818;50.860;4.648;2023-03-23T00:08:42;4.32;;;1.65;;
9559;SDS011;4818;50.860;4.648;2023-03-23T00:11:12;3.25;;;1.80;;
9559;SDS011;4818;50.860;4.648;2023-03-23T00:13:40;3.28;;;1.40;;
9559;SDS011;4818;50.860;4.648;2023-03-23T00:16:07;3.40;;;1.60;;
9559;SDS011;4818;50.860;4.648;2023-03-23T00:18:44;4.30;;;1.30;;
9559;SDS011;4818;50.860;4.648;2023-03-23T00:21:11;6.18;;;1.40;;
9559;SDS011;4818;50.860;4.648;2023-03-23T00:23:37;3.90;;;1.58;;
9559;SDS011;4818;50.860;4.648;2023-03-23T00:26:04;2.97;;;1.40;;
9559;SDS011;4818;50.860;4.648;2023-03-23T00:28:30;2.58;;;1.60;;
9559;SDS011;4818;50.860;4.648;2023-03-23T00:31:00;5.50;;;1.85;;
9559;SDS011;4818;50.860;4.648;2023-03-23T00:33:27;4.15;;;1.83;;
9559;SDS011;4818;50.860;4.648;2023-03-23T00:35:54;4.60;;;1.48;;
9559;SDS011;4818;50.860;4.648;2023-03-23T00:38:21;2.55;;;1.40;;
9559;SDS011;4818;50.860;4.648;2023-03-23T00:40:47;6.40;;;1.42;;
9559;SDS011;4818;50.860;4.648;2023-03-23T00:43:14;6.40;;;1.70;;
9559;SDS011;4818;50.860;4.648;2023-03-23T00:45:41;2.58;;;1.42;;
9559;SDS011;4818;50.860;4.648;2023-03-23T00:48:07;4.07;;;1.48;;
9559;SDS011;4818;50.860;4.648;2023-03-23T00:50:33;4.88;;;1.38;;
9559;SDS011;4818;50.860;4.648;2023-03-23T00:52:59;2.08;;;1.15;;
9559;SDS011;4818;50.860;4.648;2023-03-23T00:55:25;2.28;;;1.15;;
9559;SDS011;4818;50.860;4.648;2023-03-23T00:57:52;2.45;;;1.55;;
9559;SDS011;4818;50.860;4.648;2023-03-23T01:00:18;3.50;;;1.33;;
9559;SDS011;4818;50.860;4.648;2023-03-23T01:02:45;3.50;;;1.58;;
9559;SDS011;4818;50.860;4.648;2023-03-23T01:05:11;3.13;;;1.33;;
9559;SDS011;4818;50.860;4.648;2023-03-23T01:07:37;2.53;;;1.80;;
9559;SDS011;4818;50.860;4.648;2023-03-23T01:10:03;2.67;;;1.58;;
9559;SDS011;4818;50.860;4.648;2023-03-23T01:12:30;4.53;;;1.33;;
9559;SDS011;4818;50.860;4.648;2023-03-23T01:14:56;2.47;;;1.48;;
9559;SDS011;4818;50.860;4.648;2023-03-23T01:17:22;1.88;;;1.20;;
9559;SDS011;4818;50.860;4.648;2023-03-23T01:19:48;4.15;;;2.28;;
9559;SDS011;4818;50.860;4.648;2023-03-23T01:22:14;5.07;;;1.52;;
9559;SDS011;4818;50.860;4.648;2023-03-23T01:24:40;4.13;;;1.65;;
9559;SDS011;4818;50.860;4.648;2023-03-23T01:27:06;2.08;;;1.05;;
9559;SDS011;4818;50.860;4.648;2023-03-23T01:29:35;3.80;;;1.50;;
9559;SDS011;4818;50.860;4.648;2023-03-23T01:32:02;3.88;;;1.75;;
9559;SDS011;4818;50.860;4.648;2023-03-23T01:34:28;4.70;;;2.03;;
9559;SDS011;4818;50.860;4.648;2023-03-23T01:36:55;4.47;;;1.58;;
9559;SDS011;4818;50.860;4.648;2023-03-23T01:39:21;2.28;;;1.60;;
9559;SDS011;4818;50.860;4.648;2023-03-23T01:41:47;6.88;;;1.77;;
9559;SDS011;4818;50.860;4.648;2023-03-23T01:46:43;3.45;;;1.20;;
9559;SDS011;4818;50.860;4.648;2023-03-23T01:49:17;3.55;;;1.13;;
9559;SDS011;4818;50.860;4.648;2023-03-23T01:52:27;6.18;;;1.50;;
9559;SDS011;4818;50.860;4.648;2023-03-23T01:54:34;3.35;;;1.70;;
9559;SDS011;4818;50.860;4.648;2023-03-23T01:57:17;3.55;;;1.50;;
9559;SDS011;4818;50.860;4.648;2023-03-23T01:59:46;3.17;;;1.30;;
9559;SDS011;4818;50.860;4.648;2023-03-23T02:02:13;2.67;;;1.00;;
9559;SDS011;4818;50.860;4.648;2023-03-23T02:04:41;2.38;;;1.23;;
9559;SDS011;4818;50.860;4.648;2023-03-23T02:07:09;3.42;;;1.55;;
9559;SDS011;4818;50.860;4.648;2023-03-23T02:09:35;2.90;;;1.20;;
9559;SDS011;4818;50.860;4.648;2023-03-23T02:12:02;5.63;;;1.52;;
9559;SDS011;4818;50.860;4.648;2023-03-23T02:14:28;3.55;;;1.23;;
9559;SDS011;4818;50.860;4.648;2023-03-23T02:29:45;5.95;;;1.27;;
9559;SDS011;4818;50.860;4.648;2023-03-23T02:34:48;4.03;;;0.82;;
9559;SDS011;4818;50.860;4.648;2023-03-23T02:37:20;4.60;;;1.30;;
9559;SDS011;4818;50.860;4.648;2023-03-23T02:39:52;3.17;;;0.88;;
9559;SDS011;4818;50.860;4.648;2023-03-23T02:42:26;3.60;;;0.90;;
9559;SDS011;4818;50.860;4.648;2023-03-23T02:44:54;2.95;;;0.82;;
9559;SDS011;4818;50.860;4.648;2023-03-23T02:47:22;3.97;;;1.30;;
9559;SDS011;4818;50.860;4.648;2023-03-23T02:49:50;3.35;;;0.75;;
9559;SDS011;4818;50.860;4.648;2023-03-23T02:52:19;3.45;;;0.80;;
9559;SDS011;4818;50.860;4.648;2023-03-23T02:54:47;5.28;;;0.60;;
9559;SDS011;4818;50.860;4.648;2023-03-23T02:57:14;2.40;;;0.80;;
9559;SDS011;4818;50.860;4.648;2023-03-23T02:59:41;7.18;;;0.80;;
9559;SDS011;4818;50.860;4.648;2023-03-23T03:02:12;1.85;;;0.50;;
9559;SDS011;4818;50.860;4.648;2023-03-23T03:04:39;2.00;;;0.45;;
9559;SDS011;4818;50.860;4.648;2023-03-23T03:09:59;1.95;;;0.52;;
9559;SDS011;4818;50.860;4.648;2023-03-23T03:12:30;4.13;;;0.85;;
9559;SDS011;4818;50.860;4.648;2023-03-23T03:15:02;4.22;;;0.85;;
9559;SDS011;4818;50.860;4.648;2023-03-23T03:17:32;3.40;;;0.50;;
9559;SDS011;4818;50.860;4.648;2023-03-23T03:20:02;2.87;;;0.87;;
9559;SDS011;4818;50.860;4.648;2023-03-23T03:22:35;2.22;;;0.70;;
9559;SDS011;4818;50.860;4.648;2023-03-23T03:25:04;6.40;;;0.93;;
9559;SDS011;4818;50.860;4.648;2023-03-23T03:27:31;3.97;;;0.70;;
9559;SDS011;4818;50.860;4.648;2023-03-23T03:30:01;5.38;;;0.75;;
9559;SDS011;4818;50.860;4.648;2023-03-23T03:32:31;6.47;;;1.00;;
9559;SDS011;4818;50.860;4.648;2023-03-23T03:35:02;2.35;;;0.60;;
9559;SDS011;4818;50.860;4.648;2023-03-23T03:37:32;3.80;;;0.80;;
9559;SDS011;4818;50.860;4.648;2023-03-23T03:39:59;1.55;;;0.50;;
9559;SDS011;4818;50.860;4.648;2023-03-23T03:42:25;4.72;;;0.90;;
9559;SDS011;4818;50.860;4.648;2023-03-23T03:44:51;1.40;;;0.70;;
9559;SDS011;4818;50.860;4.648;2023-03-23T03:47:17;4.45;;;0.70;;
9559;SDS011;4818;50.860;4.648;2023-03-23T03:49:43;4.80;;;0.77;;
9559;SDS011;4818;50.860;4.648;2023-03-23T03:52:10;1.63;;;0.60;;
9559;SDS011;4818;50.860;4.648;2023-03-23T03:54:36;2.58;;;0.77;;
9559;SDS011;4818;50.860;4.648;2023-03-23T03:57:02;5.15;;;0.95;;
9559;SDS011;4818;50.860;4.648;2023-03-23T03:59:28;1.70;;;0.60;;
9559;SDS011;4818;50.860;4.648;2023-03-23T04:01:55;4.60;;;0.68;;
9559;SDS011;4818;50.860;4.648;2023-03-23T04:04:21;3.22;;;0.82;;
9559;SDS011;4818;50.860;4.648;2023-03-23T04:06:48;1.95;;;0.90;;
9559;SDS011;4818;50.860;4.648;2023-03-23T04:09:14;3.67;;;0.50;;
9559;SDS011;4818;50.860;4.648;2023-03-23T04:11:40;3.30;;;0.63;;
9559;SDS011;4818;50.860;4.648;2023-03-23T04:14:06;2.80;;;0.60;;
9559;SDS011;4818;50.860;4.648;2023-03-23T04:16:32;3.17;;;0.60;;
9559;SDS011;4818;50.860;4.648;2023-03-23T04:19:00;3.88;;;0.82;;
9559;SDS011;4818;50.860;4.648;2023-03-23T04:21:26;5.43;;;0.85;;
9559;SDS011;4818;50.860;4.648;2023-03-23T04:23:55;5.43;;;0.60;;
9559;SDS011;4818;50.860;4.648;2023-03-23T04:26:25;6.10;;;0.88;;
9559;SDS011;4818;50.860;4.648;2023-03-23T04:28:51;2.35;;;0.40;;
9559;SDS011;4818;50.860;4.648;2023-03-23T04:31:18;3.22;;;0.40;;
9559;SDS011;4818;50.860;4.648;2023-03-23T04:33:44;2.22;;;0.50;;
9559;SDS011;4818;50.860;4.648;2023-03-23T04:36:11;3.85;;;0.60;;
9559;SDS011;4818;50.860;4.648;2023-03-23T04:38:41;9.23;;;0.60;;
9559;SDS011;4818;50.860;4.648;2023-03-23T04:41:08;5.57;;;0.70;;
9559;SDS011;4818;50.860;4.648;2023-03-23T04:43:34;3.13;;;0.90;;
9559;SDS011;4818;50.860;4.648;2023-03-23T04:46:07;3.70;;;0.47;;
9559;SDS011;4818;50.860;4.648;2023-03-23T04:48:36;5.03;;;0.40;;
9559;SDS011;4818;50.860;4.648;2023-03-23T04:51:05;6.97;;;0.57;;
9559;SDS011;4818;50.860;4.648;2023-03-23T04:53:31;8.68;;;0.30;;
9559;SDS011;4818;50.860;4.648;2023-03-23T04:55:58;5.03;;;0.40;;
9559;SDS011;4818;50.860;4.648;2023-03-23T04:58:26;5.47;;;1.23;;
9559;SDS011;4818;50.860;4.648;2023-03-23T05:00:53;1.63;;;0.43;;
9559;SDS011;4818;50.860;4.648;2023-03-23T05:03:19;2.15;;;0.40;;
9559;SDS011;4818;50.860;4.648;2023-03-23T05:05:46;5.80;;;0.95;;
9559;SDS011;4818;50.860;4.648;2023-03-23T05:08:17;5.22;;;0.60;;
9559;SDS011;4818;50.860;4.648;2023-03-23T05:10:49;3.42;;;0.35;;
9559;SDS011;4818;50.860;4.648;2023-03-23T05:13:16;7.28;;;0.70;;
9559;SDS011;4818;50.860;4.648;2023-03-23T05:15:42;3.55;;;0.85;;
9559;SDS011;4818;50.860;4.648;2023-03-23T05:18:08;3.00;;;0.40;;
9559;SDS011;4818;50.860;4.648;2023-03-23T05:20:36;3.13;;;0.30;;
9559;SDS011;4818;50.860;4.648;2023-03-23T05:23:03;3.70;;;0.40;;
9559;SDS011;4818;50.860;4.648;2023-03-23T05:25:29;1.95;;;0.30;;
9559;SDS011;4818;50.860;4.648;2023-03-23T05:27:57;5.10;;;0.38;;
9559;SDS011;4818;50.860;4.648;2023-03-23T05:30:25;11.00;;;0.70;;
9559;SDS011;4818;50.860;4.648;2023-03-23T05:32:53;1.90;;;0.40;;
9559;SDS011;4818;50.860;4.648;2023-03-23T05:35:19;4.03;;;0.35;;
9559;SDS011;4818;50.860;4.648;2023-03-23T05:37:45;7.07;;;0.40;;
9559;SDS011;4818;50.860;4.648;2023-03-23T05:40:12;2.92;;;0.45;;
9559;SDS011;4818;50.860;4.648;2023-03-23T05:42:39;3.28;;;0.50;;
9559;SDS011;4818;50.860;4.648;2023-03-23T05:45:07;3.58;;;0.50;;
9559;SDS011;4818;50.860;4.648;2023-03-23T05:47:35;4.67;;;0.37;;
9559;SDS011;4818;50.860;4.648;2023-03-23T05:50:01;1.77;;;0.47;;
9559;SDS011;4818;50.860;4.648;2023-03-23T05:52:27;4.05;;;0.40;;
9559;SDS011;4818;50.860;4.648;2023-03-23T05:54:54;5.45;;;0.55;;
9559;SDS011;4818;50.860;4.648;2023-03-23T05:57:20;5.82;;;0.57;;
9559;SDS011;4818;50.860;4.648;2023-03-23T05:59:49;3.13;;;0.40;;
9559;SDS011;4818;50.860;4.648;2023-03-23T06:02:15;2.83;;;0.45;;
9559;SDS011;4818;50.860;4.648;2023-03-23T06:04:42;5.25;;;0.40;;
9559;SDS011;4818;50.860;4.648;2023-03-23T06:07:08;4.30;;;0.60;;
9559;SDS011;4818;50.860;4.648;2023-03-23T06:09:38;3.65;;;0.30;;
9559;SDS011;4818;50.860;4.648;2023-03-23T06:12:05;4.13;;;0.57;;
9559;SDS011;4818;50.860;4.648;2023-03-23T06:14:32;5.07;;;0.40;;
9559;SDS011;4818;50.860;4.648;2023-03-23T06:17:01;2.22;;;0.30;;
9559;SDS011;4818;50.860;4.648;2023-03-23T06:19:27;4.75;;;0.40;;
9559;SDS011;4818;50.860;4.648;2023-03-23T06:21:54;2.70;;;0.38;;
9559;SDS011;4818;50.860;4.648;2023-03-23T06:24:20;4.80;;;0.73;;
9559;SDS011;4818;50.860;4.648;2023-03-23T06:26:47;3.53;;;0.65;;
9559;SDS011;4818;50.860;4.648;2023-03-23T06:29:13;3.40;;;0.60;;
9559;SDS011;4818;50.860;4.648;2023-03-23T06:31:41;6.53;;;0.60;;
9559;SDS011;4818;50.860;4.648;2023-03-23T06:34:08;1.98;;;0.43;;
9559;SDS011;4818;50.860;4.648;2023-03-23T06:36:35;5.22;;;0.47;;
9559;SDS011;4818;50.860;4.648;2023-03-23T06:39:02;3.25;;;0.70;;
9559;SDS011;4818;50.860;4.648;2023-03-23T06:41:29;2.92;;;0.43;;
9559;SDS011;4818;50.860;4.648;2023-03-23T06:43:56;6.45;;;0.82;;
9559;SDS011;4818;50.860;4.648;2023-03-23T06:46:22;4.43;;;0.43;;
9559;SDS011;4818;50.860;4.648;2023-03-23T06:48:49;7.00;;;0.40;;
9559;SDS011;4818;50.860;4.648;2023-03-23T06:51:16;4.43;;;0.50;;
9559;SDS011;4818;50.860;4.648;2023-03-23T06:53:42;6.53;;;0.70;;
9559;SDS011;4818;50.860;4.648;2023-03-23T06:56:11;3.92;;;0.52;;
9559;SDS011;4818;50.860;4.648;2023-03-23T06:58:38;3.15;;;0.55;;
9559;SDS011;4818;50.860;4.648;2023-03-23T07:01:05;3.65;;;0.30;;
9559;SDS011;4818;50.860;4.648;2023-03-23T07:03:32;4.03;;;0.43;;
9559;SDS011;4818;50.860;4.648;2023-03-23T07:05:58;5.13;;;0.70;;
9559;SDS011;4818;50.860;4.648;2023-03-23T07:08:25;2.90;;;0.47;;
9559;SDS011;4818;50.860;4.648;2023-03-23T07:10:54;4.47;;;0.75;;
9559;SDS011;4818;50.860;4.648;2023-03-23T07:13:21;5.70;;;0.70;;
9559;SDS011;4818;50.860;4.648;2023-03-23T07:15:47;6.20;;;0.60;;
9559;SDS011;4818;50.860;4.648;2023-03-23T07:18:14;5.30;;;0.63;;
9559;SDS011;4818;50.860;4.648;2023-03-23T07:20:41;12.57;;;0.90;;
9559;SDS011;4818;50.860;4.648;2023-03-23T07:23:07;6.22;;;0.60;;
9559;SDS011;4818;50.860;4.648;2023-03-23T07:25:36;5.60;;;0.60;;
9559;SDS011;4818;50.860;4.648;2023-03-23T07:28:03;6.53;;;0.93;;
9559;SDS011;4818;50.860;4.648;2023-03-23T07:30:29;3.95;;;0.60;;
9559;SDS011;4818;50.860;4.648;2023-03-23T07:32:56;3.15;;;0.70;;
9559;SDS011;4818;50.860;4.648;2023-03-23T07:35:23;2.88;;;0.50;;
9559;SDS011;4818;50.860;4.648;2023-03-23T07:37:49;11.60;;;1.60;;
9559;SDS011;4818;50.860;4.648;2023-03-23T07:40:19;2.05;;;0.60;;
9559;SDS011;4818;50.860;4.648;2023-03-23T07:42:51;2.78;;;0.30;;
9559;SDS011;4818;50.860;4.648;2023-03-23T07:45:18;1.02;;;0.10;;
9559;SDS011;4818;50.860;4.648;2023-03-23T07:47:44;0.35;;;0.10;;
9559;SDS011;4818;50.860;4.648;2023-03-23T07:50:10;2.13;;;0.20;;
9559;SDS011;4818;50.860;4.648;2023-03-23T07:52:37;1.30;;;0.32;;
9559;SDS011;4818;50.860;4.648;2023-03-23T07:55:05;3.38;;;0.20;;
9559;SDS011;4818;50.860;4.648;2023-03-23T07:57:31;2.17;;;0.30;;
9559;SDS011;4818;50.860;4.648;2023-03-23T07:59:59;6.13;;;0.50;;
9559;SDS011;4818;50.860;4.648;2023-03-23T08:02:25;3.88;;;0.82;;
9559;SDS011;4818;50.860;4.648;2023-03-23T08:04:55;8.35;;;0.98;;
9559;SDS011;4818;50.860;4.648;2023-03-23T08:07:23;7.10;;;0.80;;
9559;SDS011;4818;50.860;4.648;2023-03-23T08:09:51;3.83;;;1.30;;
9559;SDS011;4818;50.860;4.648;2023-03-23T08:12:18;3.55;;;0.80;;
9559;SDS011;4818;50.860;4.648;2023-03-23T08:14:44;7.22;;;0.80;;
9559;SDS011;4818;50.860;4.648;2023-03-23T08:17:13;5.75;;;1.05;;
9559;SDS011;4818;50.860;4.648;2023-03-23T08:19:39;8.48;;;1.05;;
9559;SDS011;4818;50.860;4.648;2023-03-23T08:22:06;7.15;;;0.60;;
9559;SDS011;4818;50.860;4.648;2023-03-23T08:24:33;2.60;;;0.32;;
9559;SDS011;4818;50.860;4.648;2023-03-23T08:26:59;2.95;;;0.40;;
9559;SDS011;4818;50.860;4.648;2023-03-23T08:29:28;4.20;;;0.40;;
9559;SDS011;4818;50.860;4.648;2023-03-23T08:31:57;3.40;;;0.40;;
9559;SDS011;4818;50.860;4.648;2023-03-23T08:34:23;4.65;;;0.40;;
9559;SDS011;4818;50.860;4.648;2023-03-23T08:36:49;3.47;;;0.25;;
9559;SDS011;4818;50.860;4.648;2023-03-23T08:39:16;1.58;;;0.13;;
9559;SDS011;4818;50.860;4.648;2023-03-23T08:41:43;2.45;;;0.30;;
9559;SDS011;4818;50.860;4.648;2023-03-23T08:44:11;5.63;;;0.30;;
9559;SDS011;4818;50.860;4.648;2023-03-23T08:46:37;4.60;;;0.50;;
9559;SDS011;4818;50.860;4.648;2023-03-23T08:49:04;6.95;;;0.60;;
9559;SDS011;4818;50.860;4.648;2023-03-23T08:51:31;4.68;;;0.20;;
9559;SDS011;4818;50.860;4.648;2023-03-23T08:53:57;3.17;;;0.57;;
9559;SDS011;4818;50.860;4.648;2023-03-23T08:56:24;3.80;;;0.50;;
9559;SDS011;4818;50.860;4.648;2023-03-23T08:58:51;6.13;;;0.30;;
9559;SDS011;4818;50.860;4.648;2023-03-23T09:01:17;2.97;;;0.25;;
9559;SDS011;4818;50.860;4.648;2023-03-23T09:03:44;5.22;;;0.20;;
9559;SDS011;4818;50.860;4.648;2023-03-23T09:06:10;1.33;;;0.20;;
9559;SDS011;4818;50.860;4.648;2023-03-23T09:08:38;6.38;;;0.20;;
9559;SDS011;4818;50.860;4.648;2023-03-23T09:11:06;2.33;;;0.28;;
9559;SDS011;4818;50.860;4.648;2023-03-23T09:13:37;7.40;;;0.50;;
9559;SDS011;4818;50.860;4.648;2023-03-23T09:16:03;2.45;;;0.38;;
9559;SDS011;4818;50.860;4.648;2023-03-23T09:18:32;6.18;;;0.45;;
9559;SDS011;4818;50.860;4.648;2023-03-23T09:21:00;7.32;;;0.52;;
9559;SDS011;4818;50.860;4.648;2023-03-23T09:23:29;3.80;;;0.20;;
9559;SDS011;4818;50.860;4.648;2023-03-23T09:28:23;2.70;;;0.30;;
9559;SDS011;4818;50.860;4.648;2023-03-23T09:30:49;2.67;;;0.22;;
9559;SDS011;4818;50.860;4.648;2023-03-23T09:33:17;1.90;;;0.22;;
9559;SDS011;4818;50.860;4.648;2023-03-23T09:35:43;4.88;;;0.25;;
9559;SDS011;4818;50.860;4.648;2023-03-23T09:38:10;1.50;;;0.30;;
9559;SDS011;4818;50.860;4.648;2023-03-23T09:40:55;2.70;;;0.30;;
9559;SDS011;4818;50.860;4.648;2023-03-23T09:43:29;2.40;;;0.25;;
9559;SDS011;4818;50.860;4.648;2023-03-23T09:51:45;5.22;;;0.63;;
9559;SDS011;4818;50.860;4.648;2023-03-23T09:53:52;5.05;;;0.73;;
9559;SDS011;4818;50.860;4.648;2023-03-23T09:56:20;4.80;;;0.40;;
9559;SDS011;4818;50.860;4.648;2023-03-23T09:58:58;1.48;;;0.30;;
9559;SDS011;4818;50.860;4.648;2023-03-23T10:01:27;4.18;;;0.40;;
9559;SDS011;4818;50.860;4.648;2023-03-23T10:06:47;1.73;;;0.65;;
9559;SDS011;4818;50.860;4.648;2023-03-23T10:09:14;2.45;;;0.20;;
9559;SDS011;4818;50.860;4.648;2023-03-23T10:17:14;2.88;;;0.30;;
9559;SDS011;4818;50.860;4.648;2023-03-23T10:19:50;2.72;;;0.30;;
9559;SDS011;4818;50.860;4.648;2023-03-23T10:27:33;1.17;;;0.22;;
9559;SDS011;4818;50.860;4.648;2023-03-23T10:30:03;2.85;;;0.57;;
9559;SDS011;4818;50.860;4.648;2023-03-23T10:33:11;1.58;;;0.30;;
9559;SDS011;4818;50.860;4.648;2023-03-23T10:35:34;3.58;;;0.55;;
9559;SDS011;4818;50.860;4.648;2023-03-23T10:38:03;6.53;;;0.50;;
9559;SDS011;4818;50.860;4.648;2023-03-23T10:40:32;4.05;;;0.60;;
9559;SDS011;4818;50.860;4.648;2023-03-23T10:43:00;3.50;;;0.60;;
9559;SDS011;4818;50.860;4.648;2023-03-23T10:45:27;1.88;;;0.52;;
9559;SDS011;4818;50.860;4.648;2023-03-23T10:48:18;3.53;;;0.50;;
9559;SDS011;4818;50.860;4.648;2023-03-23T10:50:48;2.22;;;0.30;;
9559;SDS011;4818;50.860;4.648;2023-03-23T10:53:17;1.20;;;0.50;;
9559;SDS011;4818;50.860;4.648;2023-03-23T10:55:45;2.88;;;0.50;;
9559;SDS011;4818;50.860;4.648;2023-03-23T11:00:58;2.75;;;0.70;;
9559;SDS011;4818;50.860;4.648;2023-03-23T11:03:42;4.05;;;0.60;;
9559;SDS011;4818;50.860;4.648;2023-03-23T11:06:20;2.90;;;0.43;;
9559;SDS011;4818;50.860;4.648;2023-03-23T11:08:55;5.45;;;0.50;;
9559;SDS011;4818;50.860;4.648;2023-03-23T11:11:26;1.73;;;0.47;;
9559;SDS011;4818;50.860;4.648;2023-03-23T11:13:57;4.05;;;0.50;;
9559;SDS011;4818;50.860;4.648;2023-03-23T11:16:28;5.43;;;0.63;;
9559;SDS011;4818;50.860;4.648;2023-03-23T11:18:57;6.72;;;0.60;;
9559;SDS011;4818;50.860;4.648;2023-03-23T11:21:24;4.78;;;1.27;;
9559;SDS011;4818;50.860;4.648;2023-03-23T11:23:52;10.13;;;2.17;;
9559;SDS011;4818;50.860;4.648;2023-03-23T11:26:32;4.07;;;2.13;;
9559;SDS011;4818;50.860;4.648;2023-03-23T11:29:21;2.05;;;1.27;;
9559;SDS011;4818;50.860;4.648;2023-03-23T11:31:48;4.60;;;2.08;;
9559;SDS011;4818;50.860;4.648;2023-03-23T11:37:06;5.47;;;2.58;;
9559;SDS011;4818;50.860;4.648;2023-03-23T11:39:35;7.90;;;3.13;;
9559;SDS011;4818;50.860;4.648;2023-03-23T11:42:12;4.68;;;2.97;;
9559;SDS011;4818;50.860;4.648;2023-03-23T11:44:40;9.48;;;3.13;;
9559;SDS011;4818;50.860;4.648;2023-03-23T11:49:43;5.88;;;2.58;;
9559;SDS011;4818;50.860;4.648;2023-03-23T11:54:43;10.70;;;1.50;;
9559;SDS011;4818;50.860;4.648;2023-03-23T11:57:12;4.28;;;0.80;;
9559;SDS011;4818;50.860;4.648;2023-03-23T11:59:39;4.68;;;0.90;;
9559;SDS011;4818;50.860;4.648;2023-03-23T12:09:53;5.07;;;0.70;;
9559;SDS011;4818;50.860;4.648;2023-03-23T12:15:03;4.90;;;0.75;;
9559;SDS011;4818;50.860;4.648;2023-03-23T12:20:10;6.28;;;0.90;;
9559;SDS011;4818;50.860;4.648;2023-03-23T12:28:09;2.80;;;0.52;;
9559;SDS011;4818;50.860;4.648;2023-03-23T12:33:17;5.68;;;0.60;;
9559;SDS011;4818;50.860;4.648;2023-03-23T12:41:15;5.28;;;0.52;;
9559;SDS011;4818;50.860;4.648;2023-03-23T12:51:49;10.57;;;0.70;;
9559;SDS011;4818;50.860;4.648;2023-03-23T12:57:09;3.70;;;0.65;;
9559;SDS011;4818;50.860;4.648;2023-03-23T12:59:43;4.68;;;1.10;;
9559;SDS011;4818;50.860;4.648;2023-03-23T13:04:56;6.40;;;1.60;;
9559;SDS011;4818;50.860;4.648;2023-03-23T13:07:26;7.20;;;1.50;;
9559;SDS011;4818;50.860;4.648;2023-03-23T13:12:23;5.35;;;0.70;;
9559;SDS011;4818;50.860;4.648;2023-03-23T13:23:29;4.15;;;1.27;;
9559;SDS011;4818;50.860;4.648;2023-03-23T13:26:40;6.55;;;1.33;;
9559;SDS011;4818;50.860;4.648;2023-03-23T13:31:30;6.57;;;1.50;;
9559;SDS011;4818;50.860;4.648;2023-03-23T13:36:42;8.98;;;1.55;;
9559;SDS011;4818;50.860;4.648;2023-03-23T13:39:23;4.88;;;0.93;;
9559;SDS011;4818;50.860;4.648;2023-03-23T13:42:00;6.32;;;1.38;;
9559;SDS011;4818;50.860;4.648;2023-03-23T13:44:38;6.45;;;1.00;;
9559;SDS011;4818;50.860;4.648;2023-03-23T13:47:16;4.22;;;1.00;;
9559;SDS011;4818;50.860;4.648;2023-03-23T13:57:50;5.60;;;1.05;;
9559;SDS011;4818;50.860;4.648;2023-03-23T14:02:51;6.93;;;1.23;;
9559;SDS011;4818;50.860;4.648;2023-03-23T14:07:54;5.13;;;0.80;;
9559;SDS011;4818;50.860;4.648;2023-03-23T14:10:20;6.07;;;1.30;;
9559;SDS011;4818;50.860;4.648;2023-03-23T14:12:48;13.88;;;1.15;;
9559;SDS011;4818;50.860;4.648;2023-03-23T14:15:15;10.95;;;1.77;;
9559;SDS011;4818;50.860;4.648;2023-03-23T14:17:43;12.48;;;2.42;;
9559;SDS011;4818;50.860;4.648;2023-03-23T14:20:17;13.20;;;2.00;;
9559;SDS011;4818;50.860;4.648;2023-03-23T14:22:45;6.57;;;1.30;;
9559;SDS011;4818;50.860;4.648;2023-03-23T14:25:13;6.32;;;1.33;;
9559;SDS011;4818;50.860;4.648;2023-03-23T14:27:39;8.80;;;1.48;;
9559;SDS011;4818;50.860;4.648;2023-03-23T14:30:19;5.00;;;1.00;;
9559;SDS011;4818;50.860;4.648;2023-03-23T14:32:46;6.63;;;1.35;;
9559;SDS011;4818;50.860;4.648;2023-03-23T14:35:17;7.68;;;1.27;;
9559;SDS011;4818;50.860;4.648;2023-03-23T14:37:45;5.68;;;1.52;;
9559;SDS011;4818;50.860;4.648;2023-03-23T14:40:13;8.18;;;0.95;;
9559;SDS011;4818;50.860;4.648;2023-03-23T14:42:40;3.42;;;0.93;;
9559;SDS011;4818;50.860;4.648;2023-03-23T14:45:10;10.02;;;1.20;;
9559;SDS011;4818;50.860;4.648;2023-03-23T14:47:38;5.43;;;1.20;;
9559;SDS011;4818;50.860;4.648;2023-03-23T14:50:27;7.30;;;1.05;;
9559;SDS011;4818;50.860;4.648;2023-03-23T14:53:29;5.75;;;1.17;;
9559;SDS011;4818;50.860;4.648;2023-03-23T14:55:48;8.80;;;1.75;;
9559;SDS011;4818;50.860;4.648;2023-03-23T14:58:15;8.15;;;1.10;;
9559;SDS011;4818;50.860;4.648;2023-03-23T15:00:43;9.05;;;1.17;;
9559;SDS011;4818;50.860;4.648;2023-03-23T15:03:12;11.65;;;1.13;;
9559;SDS011;4818;50.860;4.648;2023-03-23T15:05:42;11.30;;;1.48;;
9559;SDS011;4818;50.860;4.648;2023-03-23T15:08:15;7.50;;;0.80;;
9559;SDS011;4818;50.860;4.648;2023-03-23T15:10:51;8.32;;;1.50;;
9559;SDS011;4818;50.860;4.648;2023-03-23T15:13:20;9.00;;;0.70;;
9559;SDS011;4818;50.860;4.648;2023-03-23T15:15:47;7.28;;;0.88;;
9559;SDS011;4818;50.860;4.648;2023-03-23T15:18:37;5.20;;;0.73;;
9559;SDS011;4818;50.860;4.648;2023-03-23T15:21:24;11.07;;;1.02;;
9559;SDS011;4818;50.860;4.648;2023-03-23T15:30:28;6.55;;;1.25;;
9559;SDS011;4818;50.860;4.648;2023-03-23T15:33:12;7.75;;;1.10;;
9559;SDS011;4818;50.860;4.648;2023-03-23T15:38:42;7.38;;;0.77;;
9559;SDS011;4818;50.860;4.648;2023-03-23T15:41:28;13.77;;;1.48;;
9559;SDS011;4818;50.860;4.648;2023-03-23T15:44:11;13.63;;;1.10;;
9559;SDS011;4818;50.860;4.648;2023-03-23T15:46:51;9.52;;;1.15;;
9559;SDS011;4818;50.860;4.648;2023-03-23T15:49:36;8.32;;;1.42;;
9559;SDS011;4818;50.860;4.648;2023-03-23T15:52:07;4.30;;;1.00;;
9559;SDS011;4818;50.860;4.648;2023-03-23T15:54:34;5.70;;;0.73;;
9559;SDS011;4818;50.860;4.648;2023-03-23T15:57:04;7.10;;;1.05;;
9559;SDS011;4818;50.860;4.648;2023-03-23T15:59:33;5.05;;;0.95;;
9559;SDS011;4818;50.860;4.648;2023-03-23T16:04:39;4.35;;;0.85;;
9559;SDS011;4818;50.860;4.648;2023-03-23T16:07:07;5.10;;;0.63;;
9559;SDS011;4818;50.860;4.648;2023-03-23T16:09:38;7.57;;;1.27;;
9559;SDS011;4818;50.860;4.648;2023-03-23T16:12:12;8.63;;;1.52;;
9559;SDS011;4818;50.860;4.648;2023-03-23T16:14:40;6.78;;;0.98;;
9559;SDS011;4818;50.860;4.648;2023-03-23T16:17:08;8.80;;;1.10;;
9559;SDS011;4818;50.860;4.648;2023-03-23T16:19:35;8.18;;;1.05;;
9559;SDS011;4818;50.860;4.648;2023-03-23T16:22:03;5.40;;;0.90;;
9559;SDS011;4818;50.860;4.648;2023-03-23T16:24:29;5.13;;;0.75;;
9559;SDS011;4818;50.860;4.648;2023-03-23T16:26:55;8.15;;;1.58;;
9559;SDS011;4818;50.860;4.648;2023-03-23T16:29:22;6.47;;;1.08;;
9559;SDS011;4818;50.860;4.648;2023-03-23T16:31:48;4.78;;;0.60;;
9559;SDS011;4818;50.860;4.648;2023-03-23T16:34:16;4.60;;;0.70;;
9559;SDS011;4818;50.860;4.648;2023-03-23T16:36:43;6.68;;;1.27;;
9559;SDS011;4818;50.860;4.648;2023-03-23T16:39:10;5.65;;;0.93;;
9559;SDS011;4818;50.860;4.648;2023-03-23T16:41:37;10.98;;;0.90;;
9559;SDS011;4818;50.860;4.648;2023-03-23T16:44:05;5.50;;;0.90;;
9559;SDS011;4818;50.860;4.648;2023-03-23T16:46:33;13.05;;;1.13;;
9559;SDS011;4818;50.860;4.648;2023-03-23T16:49:03;5.05;;;1.02;;
9559;SDS011;4818;50.860;4.648;2023-03-23T16:51:29;4.90;;;0.60;;
9559;SDS011;4818;50.860;4.648;2023-03-23T16:53:55;3.65;;;1.00;;
9559;SDS011;4818;50.860;4.648;2023-03-23T16:56:22;6.05;;;0.77;;
9559;SDS011;4818;50.860;4.648;2023-03-23T16:58:48;3.88;;;0.60;;
9559;SDS011;4818;50.860;4.648;2023-03-23T17:01:14;5.00;;;0.88;;
9559;SDS011;4818;50.860;4.648;2023-03-23T17:03:40;4.25;;;0.60;;
9559;SDS011;4818;50.860;4.648;2023-03-23T17:06:07;6.30;;;0.52;;
9559;SDS011;4818;50.860;4.648;2023-03-23T17:08:33;7.35;;;0.80;;
9559;SDS011;4818;50.860;4.648;2023-03-23T17:11:00;4.03;;;1.00;;
9559;SDS011;4818;50.860;4.648;2023-03-23T17:13:28;5.85;;;0.70;;
9559;SDS011;4818;50.860;4.648;2023-03-23T17:15:57;3.58;;;0.57;;
9559;SDS011;4818;50.860;4.648;2023-03-23T17:18:23;11.45;;;1.48;;
9559;SDS011;4818;50.860;4.648;2023-03-23T17:20:51;4.15;;;0.50;;
9559;SDS011;4818;50.860;4.648;2023-03-23T17:23:18;10.90;;;1.20;;
9559;SDS011;4818;50.860;4.648;2023-03-23T17:25:47;4.72;;;0.95;;
9559;SDS011;4818;50.860;4.648;2023-03-23T17:28:14;7.72;;;1.02;;
9559;SDS011;4818;50.860;4.648;2023-03-23T17:30:41;5.75;;;0.52;;
9559;SDS011;4818;50.860;4.648;2023-03-23T17:33:08;8.63;;;0.68;;
9559;SDS011;4818;50.860;4.648;2023-03-23T17:35:34;8.77;;;1.02;;
9559;SDS011;4818;50.860;4.648;2023-03-23T17:38:01;9.93;;;1.63;;
9559;SDS011;4818;50.860;4.648;2023-03-23T17:40:27;6.18;;;0.82;;